Time;durP1;ratioP1;P1;durP2;ratioP2;P2;SDS_P1;SDS_P2;PMS_P1;PMS_P2;Temp;Humidity;BMP_temperature;BMP_pressure;BME280_temperature;BME280_humidity;BME280_pressure;Samples;Min_cycle;Max_cycle;Signal;HPM_P1;HPM_P2
2023/01/13 00:01:26;;;;;;;12.57;5.70;;;4.00;99.90;;;;;;4418986;28;656643;-67
2023/01/13 00:04:13;;;;;;;11.50;5.70;;;4.00;99.90;;;;;;4438047;28;657805;-67
2023/01/13 00:07:02;;;;;;;14.02;6.07;;;4.00;99.90;;;;;;4418781;28;656827;-67
2023/01/13 00:09:49;;;;;;;13.37;5.77;;;4.00;99.90;;;;;;4435048;28;656394;-67
2023/01/13 00:12:39;;;;;;;14.30;6.17;;;4.10;99.90;;;;;;4415482;28;657085;-67
2023/01/13 00:15:26;;;;;;;11.70;5.63;;;4.00;99.90;;;;;;4417857;28;656521;-67
2023/01/13 00:18:14;;;;;;;15.00;6.50;;;4.00;99.90;;;;;;4425005;28;656926;-67
2023/01/13 00:21:01;;;;;;;15.00;6.27;;;3.90;99.90;;;;;;4409653;28;656625;-67
2023/01/13 00:23:50;;;;;;;13.33;6.63;;;4.00;99.90;;;;;;4430957;28;656899;-67
2023/01/13 00:26:37;;;;;;;16.27;7.73;;;3.90;99.90;;;;;;4395762;28;657522;-67
2023/01/13 00:29:24;;;;;;;15.57;7.73;;;3.90;99.90;;;;;;4415961;28;656997;-67
2023/01/13 00:32:12;;;;;;;15.33;8.10;;;3.80;99.90;;;;;;4406104;28;656567;-67
2023/01/13 00:34:59;;;;;;;19.13;8.37;;;3.80;99.90;;;;;;4427067;28;656705;-67
2023/01/13 00:37:46;;;;;;;13.93;6.40;;;3.80;99.90;;;;;;4395824;28;656536;-67
2023/01/13 00:40:35;;;;;;;22.47;8.77;;;3.80;99.90;;;;;;4421534;28;657223;-67
2023/01/13 00:43:23;;;;;;;15.47;7.83;;;3.70;99.90;;;;;;4396928;28;658115;-67
2023/01/13 00:46:12;;;;;;;19.77;8.90;;;3.80;99.90;;;;;;4401329;28;656621;-67
2023/01/13 00:48:59;;;;;;;11.43;5.60;;;3.70;99.90;;;;;;4436067;28;656680;-67
2023/01/13 00:51:46;;;;;;;13.17;5.70;;;3.70;99.90;;;;;;4405632;28;656832;-67
2023/01/13 00:54:33;;;;;;;9.90;5.37;;;3.90;99.90;;;;;;4419098;28;658274;-67
2023/01/13 00:57:22;;;;;;;10.80;5.20;;;3.90;99.90;;;;;;4409812;28;655277;-67
2023/01/13 01:00:10;;;;;;;13.70;5.10;;;3.90;99.90;;;;;;4421642;28;656980;-67
2023/01/13 01:02:58;;;;;;;9.17;4.93;;;4.10;99.90;;;;;;4400407;28;657841;-67
2023/01/13 01:05:45;;;;;;;8.13;5.25;;;4.20;99.90;;;;;;4404292;28;655570;-67
2023/01/13 01:08:33;;;;;;;8.83;5.00;;;4.20;99.90;;;;;;4420158;28;656624;-67
2023/01/13 01:11:21;;;;;;;7.80;4.72;;;4.30;99.90;;;;;;4398199;28;655260;-67
2023/01/13 01:14:11;;;;;;;8.60;5.27;;;4.30;99.90;;;;;;4417076;28;656059;-67
2023/01/13 01:16:59;;;;;;;10.77;5.10;;;4.30;99.90;;;;;;4400180;28;656175;-67
2023/01/13 01:19:46;;;;;;;11.53;4.90;;;4.30;99.90;;;;;;4420454;28;656778;-67
2023/01/13 01:22:33;;;;;;;11.30;5.23;;;4.30;99.90;;;;;;4437134;28;657674;-67
2023/01/13 01:25:20;;;;;;;9.60;5.20;;;4.20;99.90;;;;;;4414125;28;656483;-67
2023/01/13 01:28:08;;;;;;;10.17;6.30;;;4.20;99.90;;;;;;4436968;28;656919;-67
2023/01/13 01:30:58;;;;;;;11.10;6.00;;;4.10;99.90;;;;;;4432453;28;656708;-67
2023/01/13 01:33:46;;;;;;;12.37;6.30;;;4.10;99.90;;;;;;4419510;28;656215;-67
2023/01/13 01:36:34;;;;;;;10.17;6.00;;;4.10;99.90;;;;;;4438268;28;657632;-67
2023/01/13 01:39:21;;;;;;;9.30;5.40;;;4.10;99.90;;;;;;4416462;28;656894;-67
2023/01/13 01:45:18;;;;;;;15.57;4.80;;;4.10;99.90;;;;;;4427986;28;655917;-67
2023/01/13 01:48:07;;;;;;;10.60;4.70;;;4.00;99.90;;;;;;4431960;28;656512;-67
2023/01/13 01:50:54;;;;;;;7.23;4.40;;;4.00;99.90;;;;;;4440847;28;656910;-67
2023/01/13 01:53:42;;;;;;;9.90;4.30;;;4.00;99.90;;;;;;4424306;28;656240;-67
2023/01/13 01:56:29;;;;;;;9.57;4.30;;;4.00;99.90;;;;;;4448653;28;655385;-67
2023/01/13 01:59:16;;;;;;;9.00;4.20;;;4.00;99.90;;;;;;4422730;28;655585;-67
2023/01/13 02:02:03;;;;;;;11.47;4.50;;;3.90;99.90;;;;;;4451240;28;656720;-67
2023/01/13 02:04:52;;;;;;;9.70;5.43;;;3.90;99.90;;;;;;4414712;28;657236;-67
2023/01/13 02:07:41;;;;;;;7.83;4.50;;;3.80;99.90;;;;;;4435492;28;655571;-67
2023/01/13 02:10:29;;;;;;;9.50;5.17;;;3.80;99.90;;;;;;4444551;28;656496;-67
2023/01/13 02:13:16;;;;;;;12.07;6.73;;;3.70;99.90;;;;;;4424776;28;655489;-67
2023/01/13 02:16:07;;;;;;;12.10;6.57;;;3.60;99.90;;;;;;4444102;28;657333;-67
2023/01/13 02:18:57;;;;;;;14.47;7.10;;;3.60;99.90;;;;;;4421652;28;657648;-67
2023/01/13 02:22:05;;;;;;;14.20;7.23;;;3.50;99.90;;;;;;4422469;28;657566;-67
2023/01/13 02:25:15;;;;;;;12.67;6.77;;;3.50;99.90;;;;;;4423716;28;658659;-67
2023/01/13 02:28:19;;;;;;;13.40;7.43;;;3.50;99.90;;;;;;4403133;28;656890;-67
2023/01/13 02:34:15;;;;;;;18.93;10.03;;;3.30;99.90;;;;;;4415523;28;656716;-67
2023/01/13 02:37:04;;;;;;;15.70;8.23;;;3.30;99.90;;;;;;4418589;28;658218;-67
2023/01/13 02:39:55;;;;;;;16.33;9.30;;;3.30;99.90;;;;;;4423279;28;656753;-67
2023/01/13 02:46:04;;;;;;;10.87;6.30;;;3.20;99.90;;;;;;4343714;28;657091;-67
2023/01/13 02:48:53;;;;;;;12.15;5.53;;;3.30;99.90;;;;;;4413190;28;656571;-67
2023/01/13 02:51:40;;;;;;;10.70;5.50;;;3.40;99.90;;;;;;4424488;28;656558;-67
2023/01/13 02:54:28;;;;;;;10.13;5.33;;;3.40;99.90;;;;;;4445250;28;658170;-67
2023/01/13 02:57:15;;;;;;;10.17;5.57;;;3.40;99.90;;;;;;4423792;28;656232;-67
2023/01/13 03:00:03;;;;;;;10.90;4.93;;;3.20;99.90;;;;;;4439232;28;657255;-67
2023/01/13 03:02:50;;;;;;;9.23;4.83;;;3.20;99.90;;;;;;4420322;28;656175;-67
2023/01/13 03:05:39;;;;;;;7.70;4.23;;;3.20;99.90;;;;;;4441849;28;656535;-67
2023/01/13 03:08:32;;;;;;;9.70;4.10;;;3.30;99.90;;;;;;4421280;28;655875;-67
2023/01/13 03:11:19;;;;;;;6.57;4.00;;;3.60;99.90;;;;;;4418651;28;655404;-67
2023/01/13 03:14:10;;;;;;;7.77;4.17;;;3.70;99.90;;;;;;4428775;28;656195;-67
2023/01/13 03:17:09;;;;;;;6.83;3.80;;;3.70;99.90;;;;;;4418500;28;656342;-67
2023/01/13 03:19:59;;;;;;;8.98;3.63;;;3.70;99.90;;;;;;4398606;28;656510;-67
2023/01/13 03:22:52;;;;;;;6.10;3.70;;;3.90;99.90;;;;;;4425714;28;655769;-67
2023/01/13 03:25:41;;;;;;;8.20;3.93;;;4.10;99.90;;;;;;4422495;28;655831;-67
2023/01/13 03:28:29;;;;;;;8.80;3.63;;;4.10;99.90;;;;;;4428594;28;655997;-67
2023/01/13 03:31:19;;;;;;;6.97;3.40;;;4.10;99.90;;;;;;4427317;28;655383;-67
2023/01/13 03:34:07;;;;;;;6.67;3.67;;;4.10;99.90;;;;;;4426671;28;656316;-67
2023/01/13 03:36:55;;;;;;;6.63;3.63;;;4.20;99.90;;;;;;4451520;28;655074;-67
2023/01/13 03:39:45;;;;;;;8.57;4.87;;;4.20;99.90;;;;;;4420700;28;656538;-67
2023/01/13 03:42:33;;;;;;;11.60;6.60;;;4.20;99.90;;;;;;4416682;28;656429;-67
2023/01/13 03:45:19;;;;;;;11.05;5.93;;;4.10;99.90;;;;;;4424713;28;656641;-67
2023/01/13 03:48:07;;;;;;;9.77;4.60;;;4.10;99.90;;;;;;4356193;28;656264;-67
2023/01/13 03:50:57;;;;;;;8.47;4.60;;;4.00;99.90;;;;;;4257092;28;655290;-67
2023/01/13 03:53:47;;;;;;;8.23;4.63;;;3.90;99.90;;;;;;4304564;28;655215;-67
2023/01/13 03:56:38;;;;;;;7.87;4.53;;;3.90;99.90;;;;;;4420604;28;655866;-67
2023/01/13 03:59:27;;;;;;;11.03;5.37;;;3.90;99.90;;;;;;4417117;28;655912;-67
2023/01/13 04:02:17;;;;;;;8.43;5.00;;;4.00;99.90;;;;;;4448649;28;656681;-67
2023/01/13 04:05:05;;;;;;;9.50;4.73;;;3.90;99.90;;;;;;4424478;28;656197;-67
2023/01/13 04:07:56;;;;;;;7.87;4.60;;;3.80;99.90;;;;;;4424912;28;657001;-67
2023/01/13 04:10:46;;;;;;;9.70;4.67;;;3.90;99.90;;;;;;4417566;28;656688;-67
2023/01/13 04:13:36;;;;;;;7.13;4.50;;;4.00;99.90;;;;;;4420411;28;656574;-67
2023/01/13 04:16:24;;;;;;;6.80;3.80;;;4.00;99.90;;;;;;4418131;28;656246;-67
2023/01/13 04:19:11;;;;;;;7.63;3.90;;;4.30;99.90;;;;;;4427051;28;655648;-67
2023/01/13 04:21:58;;;;;;;8.37;3.63;;;4.40;99.90;;;;;;4449818;28;656434;-67
2023/01/13 04:24:45;;;;;;;8.80;3.97;;;4.40;99.90;;;;;;4425034;28;655676;-67
2023/01/13 04:27:32;;;;;;;8.07;3.97;;;4.50;99.90;;;;;;4437577;28;656341;-67
2023/01/13 04:30:22;;;;;;;7.17;3.70;;;4.60;99.90;;;;;;4435904;28;656381;-67
2023/01/13 04:33:09;;;;;;;7.90;3.93;;;4.70;99.90;;;;;;4449866;28;655684;-67
2023/01/13 04:35:56;;;;;;;7.87;4.30;;;4.70;99.90;;;;;;4424550;28;657158;-67
2023/01/13 04:38:43;;;;;;;7.50;4.35;;;4.70;99.90;;;;;;4451835;28;657119;-67
2023/01/13 04:41:56;;;;;;;9.80;4.80;;;4.70;99.90;;;;;;4421687;28;655550;-67
2023/01/13 04:44:38;;;;;;;10.90;5.17;;;4.60;99.90;;;;;;4423376;28;656116;-67
2023/01/13 04:47:27;;;;;;;10.40;5.43;;;4.50;99.90;;;;;;4416156;28;657283;-67
2023/01/13 04:50:18;;;;;;;9.73;5.18;;;4.60;99.90;;;;;;4443385;28;657212;-67
2023/01/13 04:53:05;;;;;;;7.90;4.20;;;4.60;99.90;;;;;;4405937;28;655954;-67
2023/01/13 04:55:52;;;;;;;10.47;4.50;;;4.70;99.90;;;;;;4457149;28;655455;-67
2023/01/13 04:58:40;;;;;;;8.13;4.90;;;5.00;99.90;;;;;;4437537;28;656412;-67
2023/01/13 05:01:27;;;;;;;8.13;4.40;;;5.10;99.90;;;;;;4443464;28;655501;-67
2023/01/13 05:04:17;;;;;;;9.67;4.50;;;5.10;99.90;;;;;;4442301;28;656014;-67
2023/01/13 05:07:04;;;;;;;9.90;4.40;;;5.20;99.90;;;;;;4445947;28;654910;-67
2023/01/13 05:09:51;;;;;;;6.20;4.10;;;5.30;99.90;;;;;;4416522;28;655234;-67
2023/01/13 05:18:47;;;;;;;7.97;4.70;;;5.30;99.90;;;;;;4425868;28;656086;-67
2023/01/13 05:27:45;;;;;;;7.67;4.20;;;5.50;99.90;;;;;;4403376;28;655954;-67
2023/01/13 05:30:33;;;;;;;7.33;4.27;;;5.50;99.90;;;;;;4442244;28;656903;-67
2023/01/13 05:33:21;;;;;;;7.57;4.03;;;5.60;99.90;;;;;;4417397;28;655556;-66
2023/01/13 05:36:09;;;;;;;10.13;4.40;;;5.60;99.90;;;;;;4442959;28;655866;-66
2023/01/13 05:38:57;;;;;;;7.60;4.23;;;5.60;99.90;;;;;;4422979;28;656441;-67
2023/01/13 05:44:49;;;;;;;10.73;4.57;;;5.60;99.90;;;;;;4423577;28;656350;-67
2023/01/13 05:47:37;;;;;;;9.53;4.63;;;5.60;99.90;;;;;;4426791;28;656124;-67
2023/01/13 05:50:24;;;;;;;11.10;5.00;;;5.60;99.90;;;;;;4443038;28;656193;-66
2023/01/13 05:53:11;;;;;;;9.20;4.70;;;5.70;99.90;;;;;;4418255;28;656674;-67
2023/01/13 05:56:00;;;;;;;8.33;4.43;;;5.80;99.90;;;;;;4439516;28;655370;-67
2023/01/13 05:58:47;;;;;;;11.43;4.60;;;5.80;99.90;;;;;;4413083;28;656580;-67
2023/01/13 06:01:35;;;;;;;8.10;4.27;;;5.80;99.90;;;;;;4439748;28;656042;-67
2023/01/13 06:04:23;;;;;;;7.63;4.57;;;5.80;99.90;;;;;;4422531;28;657088;-67
2023/01/13 06:07:11;;;;;;;8.50;4.53;;;5.90;99.90;;;;;;4434596;28;655716;-67
2023/01/13 06:09:58;;;;;;;9.70;4.67;;;5.90;99.90;;;;;;4442923;28;655865;-67
2023/01/13 06:12:47;;;;;;;10.30;4.30;;;5.90;99.90;;;;;;4416372;28;655573;-67
2023/01/13 06:15:34;;;;;;;7.03;4.20;;;5.90;99.90;;;;;;4448249;28;656355;-67
2023/01/13 06:18:21;;;;;;;10.20;4.40;;;5.90;99.90;;;;;;4424648;28;655556;-67
2023/01/13 06:21:09;;;;;;;9.30;4.33;;;5.80;99.90;;;;;;4445737;28;657744;-67
2023/01/13 06:23:56;;;;;;;9.83;4.70;;;5.80;99.90;;;;;;4415840;28;655908;-67
2023/01/13 06:26:43;;;;;;;8.47;4.67;;;5.70;99.90;;;;;;4444431;28;655614;-67
2023/01/13 06:29:32;;;;;;;10.10;4.83;;;5.70;99.90;;;;;;4420311;28;655812;-67
2023/01/13 06:32:21;;;;;;;10.57;5.50;;;5.70;99.90;;;;;;4443947;28;656937;-67
2023/01/13 06:35:09;;;;;;;11.27;5.20;;;5.70;99.90;;;;;;4422542;28;657231;-67
2023/01/13 06:37:57;;;;;;;11.40;6.03;;;5.70;99.90;;;;;;4420010;28;656745;-67
2023/01/13 06:40:44;;;;;;;11.40;6.00;;;5.70;99.90;;;;;;4443833;28;656738;-67
2023/01/13 06:43:30;;;;;;;12.90;6.63;;;5.60;99.90;;;;;;4415782;28;657201;-67
2023/01/13 06:46:19;;;;;;;10.67;6.00;;;5.50;99.90;;;;;;4441150;28;656333;-66
2023/01/13 06:49:06;;;;;;;11.90;5.70;;;5.60;99.90;;;;;;4424831;28;657120;-66
2023/01/13 06:51:53;;;;;;;9.43;5.23;;;5.70;99.90;;;;;;4437844;28;658445;-66
2023/01/13 06:54:41;;;;;;;11.27;5.67;;;5.80;99.90;;;;;;4418446;28;655714;-71
2023/01/13 06:57:28;;;;;;;11.33;5.47;;;5.80;99.90;;;;;;4436569;28;657321;-72
2023/01/13 07:00:16;;;;;;;13.20;4.93;;;5.70;99.90;;;;;;4415346;28;656995;-72
2023/01/13 07:03:09;;;;;;;9.25;4.70;;;5.70;99.90;;;;;;4435975;28;657222;-71
2023/01/13 07:05:56;;;;;;;8.80;4.97;;;5.70;99.90;;;;;;4417340;28;656967;-71
2023/01/13 07:08:43;;;;;;;10.17;5.20;;;5.90;99.90;;;;;;4441971;28;656579;-72
2023/01/13 07:11:30;;;;;;;9.13;4.87;;;6.00;99.90;;;;;;4422143;28;656559;-72
2023/01/13 07:17:24;;;;;;;8.97;4.60;;;6.10;99.90;;;;;;4408790;28;656751;-71
2023/01/13 07:20:13;;;;;;;12.33;4.57;;;6.10;99.90;;;;;;4414568;28;655341;-72
2023/01/13 07:23:00;;;;;;;8.87;4.20;;;6.20;99.90;;;;;;4421639;28;656527;-71
2023/01/13 07:25:48;;;;;;;8.67;4.50;;;6.30;99.90;;;;;;4437815;28;656168;-72
2023/01/13 07:28:35;;;;;;;7.03;4.50;;;6.40;99.90;;;;;;4431672;28;655800;-72
2023/01/13 07:31:22;;;;;;;9.23;4.43;;;6.40;99.90;;;;;;4440778;28;657015;-71
2023/01/13 07:34:10;;;;;;;8.27;4.07;;;6.40;99.90;;;;;;4445320;28;655624;-72
2023/01/13 07:36:59;;;;;;;10.87;4.93;;;6.50;99.90;;;;;;4443322;28;656696;-71
2023/01/13 07:39:46;;;;;;;7.93;4.43;;;6.50;99.90;;;;;;4424345;28;656771;-71
2023/01/13 07:45:38;;;;;;;9.70;4.80;;;6.50;99.90;;;;;;4422482;28;656093;-71
2023/01/13 07:48:25;;;;;;;10.90;4.70;;;6.50;99.90;;;;;;4430759;28;655651;-71
2023/01/13 07:51:13;;;;;;;9.20;4.77;;;6.60;99.90;;;;;;4436202;28;657433;-72
2023/01/13 07:54:02;;;;;;;7.57;4.30;;;6.50;99.90;;;;;;4436174;28;655899;-71
2023/01/13 07:56:49;;;;;;;9.53;4.40;;;6.50;99.90;;;;;;4446035;28;655389;-71
2023/01/13 07:59:36;;;;;;;7.90;4.43;;;6.50;99.90;;;;;;4421406;28;656638;-71
2023/01/13 08:02:24;;;;;;;9.53;5.30;;;6.50;99.90;;;;;;4440193;28;656704;-72
2023/01/13 08:05:11;;;;;;;17.33;6.53;;;6.50;99.90;;;;;;4424172;28;655383;-71
2023/01/13 08:07:58;;;;;;;16.30;8.97;;;6.60;99.90;;;;;;4439320;28;656836;-72
2023/01/13 08:10:47;;;;;;;17.07;8.43;;;6.60;99.90;;;;;;4418391;28;656358;-72
2023/01/13 08:13:34;;;;;;;17.10;9.20;;;6.60;99.90;;;;;;4443221;28;656830;-71
2023/01/13 08:16:22;;;;;;;16.75;8.88;;;6.60;99.90;;;;;;4419806;28;656667;-72
2023/01/13 08:19:09;;;;;;;15.87;9.30;;;6.60;99.90;;;;;;4440686;28;656466;-71
2023/01/13 08:21:57;;;;;;;17.93;9.60;;;6.70;99.90;;;;;;4422228;28;656443;-72
2023/01/13 08:24:44;;;;;;;19.38;9.55;;;6.70;99.90;;;;;;4439407;28;656913;-71
2023/01/13 08:27:33;;;;;;;21.50;10.60;;;6.80;99.90;;;;;;4417163;28;657053;-72
2023/01/13 08:30:20;;;;;;;20.27;9.00;;;6.80;99.90;;;;;;4430174;28;657226;-71
2023/01/13 08:33:08;;;;;;;17.77;9.13;;;6.90;99.90;;;;;;4437965;28;657980;-72
2023/01/13 08:35:55;;;;;;;18.47;9.03;;;7.00;99.90;;;;;;4428407;28;656969;-71
2023/01/13 08:38:42;;;;;;;21.97;10.90;;;7.10;99.90;;;;;;4440066;28;656538;-72
2023/01/13 08:44:37;;;;;;;20.33;9.38;;;7.30;99.90;;;;;;4417044;28;658033;-71
2023/01/13 08:47:24;;;;;;;23.17;9.80;;;7.40;99.90;;;;;;4438782;28;656260;-72
2023/01/13 08:50:12;;;;;;;18.50;8.70;;;7.50;99.90;;;;;;4415139;28;656669;-72
2023/01/13 08:53:00;;;;;;;19.13;8.47;;;7.70;99.90;;;;;;4441031;28;657005;-71
2023/01/13 08:55:47;;;;;;;17.20;8.33;;;7.80;99.90;;;;;;4417183;28;657912;-71
2023/01/13 08:58:34;;;;;;;18.60;9.02;;;7.80;99.90;;;;;;4438662;28;657064;-71
2023/01/13 09:01:23;;;;;;;25.27;12.00;;;7.90;99.90;;;;;;4417373;28;656696;-71
2023/01/13 09:04:14;;;;;;;22.00;10.27;;;7.90;99.90;;;;;;4416639;28;657402;-71
2023/01/13 09:07:02;;;;;;;25.47;10.13;;;7.90;99.90;;;;;;4423097;28;657801;-71
2023/01/13 09:09:50;;;;;;;18.53;8.97;;;7.90;99.90;;;;;;4440704;28;657705;-71
2023/01/13 09:15:44;;;;;;;16.97;8.40;;;8.00;99.90;;;;;;4417029;28;656847;-71
2023/01/13 09:18:33;;;;;;;13.30;5.93;;;7.90;99.90;;;;;;4407939;28;656513;-71
2023/01/13 09:21:20;;;;;;;13.37;6.20;;;7.90;99.90;;;;;;4434338;28;656431;-71
2023/01/13 09:24:08;;;;;;;10.50;4.63;;;7.90;99.90;;;;;;4444559;28;657329;-71
2023/01/13 09:26:55;;;;;;;12.85;5.53;;;7.80;99.90;;;;;;4415348;28;657467;-71
2023/01/13 09:29:43;;;;;;;9.77;4.30;;;7.90;99.90;;;;;;4432199;28;657336;-71
2023/01/13 09:32:30;;;;;;;7.80;4.63;;;8.10;99.90;;;;;;4422293;28;656453;-71
2023/01/13 09:35:18;;;;;;;9.10;4.23;;;8.10;99.90;;;;;;4433903;28;656703;-70
2023/01/13 09:38:06;;;;;;;9.00;4.57;;;8.10;99.90;;;;;;4426310;28;656014;-70
2023/01/13 09:40:53;;;;;;;10.23;4.47;;;8.10;99.90;;;;;;4440811;28;655217;-71
2023/01/13 09:46:51;;;;;;;10.33;4.77;;;8.20;99.90;;;;;;4389192;28;655860;-71
2023/01/13 09:49:39;;;;;;;11.97;4.80;;;8.10;99.90;;;;;;4414023;28;657712;-71
2023/01/13 09:52:28;;;;;;;12.13;4.50;;;8.10;99.90;;;;;;4405359;28;656800;-71
2023/01/13 09:55:16;;;;;;;9.73;4.32;;;8.10;99.90;;;;;;4303043;28;657494;-71
2023/01/13 09:58:11;;;;;;;10.27;4.63;;;8.10;99.90;;;;;;4259978;28;655909;-70
2023/01/13 10:01:06;;;;;;;7.15;3.90;;;8.20;99.90;;;;;;4301249;28;656284;-71
2023/01/13 10:03:53;;;;;;;9.37;4.70;;;8.20;99.90;;;;;;4416327;28;655736;-71
2023/01/13 10:06:42;;;;;;;9.35;4.13;;;8.20;99.90;;;;;;4421585;28;656151;-70
2023/01/13 10:09:34;;;;;;;8.47;4.37;;;8.30;99.90;;;;;;4443010;28;655046;-71
2023/01/13 10:15:27;;;;;;;10.37;4.13;;;8.30;99.90;;;;;;4390854;28;657092;-71
2023/01/13 10:18:17;;;;;;;9.50;4.53;;;8.40;99.90;;;;;;4442556;28;655765;-71
2023/01/13 10:21:11;;;;;;;8.90;3.87;;;8.50;99.90;;;;;;4438164;28;655859;-71
2023/01/13 10:24:01;;;;;;;7.20;3.90;;;8.60;99.90;;;;;;4423999;28;656269;-70
2023/01/13 10:26:54;;;;;;;12.20;5.13;;;8.70;99.90;;;;;;4419709;28;656493;-71
2023/01/13 10:29:41;;;;;;;28.15;10.32;;;8.80;99.90;;;;;;4409674;28;657907;-70
2023/01/13 10:32:28;;;;;;;9.03;4.50;;;8.90;99.90;;;;;;4440890;28;658304;-70
2023/01/13 10:35:16;;;;;;;29.23;10.77;;;8.90;99.90;;;;;;4420792;28;655122;-71
2023/01/13 10:38:03;;;;;;;8.50;3.70;;;9.00;99.90;;;;;;4443479;28;657732;-70
2023/01/13 10:40:52;;;;;;;12.87;4.50;;;9.00;99.90;;;;;;4427609;28;655924;-70
2023/01/13 10:43:42;;;;;;;14.97;5.60;;;8.90;99.90;;;;;;4435173;28;656974;-71
2023/01/13 10:46:29;;;;;;;11.40;4.50;;;8.90;99.90;;;;;;4441625;28;656756;-70
2023/01/13 10:49:28;;;;;;;8.17;3.53;;;8.90;99.90;;;;;;4417353;28;656326;-70
2023/01/13 10:52:25;;;;;;;10.83;3.70;;;8.90;99.90;;;;;;4435909;28;655567;-71
2023/01/13 10:55:25;;;;;;;10.00;3.80;;;9.00;99.90;;;;;;4394554;28;657521;-70
2023/01/13 10:58:13;;;;;;;11.10;4.30;;;8.90;99.90;;;;;;4413307;28;656824;-70
2023/01/13 11:01:03;;;;;;;6.93;2.90;;;9.00;99.90;;;;;;4424979;28;657096;-70
2023/01/13 11:03:51;;;;;;;12.83;5.97;;;8.90;99.90;;;;;;4422257;28;655707;-70
2023/01/13 11:06:38;;;;;;;9.00;3.77;;;8.90;99.90;;;;;;4447209;28;656832;-70
2023/01/13 11:09:26;;;;;;;12.82;4.80;;;8.90;99.90;;;;;;4424513;28;655935;-70
2023/01/13 11:12:31;;;;;;;11.40;4.10;;;9.00;99.90;;;;;;4442171;28;657075;-71
2023/01/13 11:15:19;;;;;;;10.32;3.80;;;9.10;99.90;;;;;;4416943;28;656690;-71
2023/01/13 11:18:13;;;;;;;8.43;3.50;;;9.10;99.90;;;;;;4430097;28;657957;-71
2023/01/13 11:21:01;;;;;;;7.13;2.87;;;9.10;99.90;;;;;;4394989;28;655823;-72
2023/01/13 11:23:50;;;;;;;10.80;4.47;;;9.20;99.90;;;;;;4443036;28;656305;-71
2023/01/13 11:26:40;;;;;;;10.57;4.20;;;9.20;99.90;;;;;;4420317;28;657446;-70
2023/01/13 11:29:30;;;;;;;11.03;3.93;;;9.30;99.90;;;;;;4425216;28;657173;-70
2023/01/13 11:32:18;;;;;;;10.73;3.90;;;9.30;99.90;;;;;;4427455;28;657538;-70
2023/01/13 11:35:14;;;;;;;9.40;3.83;;;9.30;99.90;;;;;;4421061;28;656729;-71
2023/01/13 11:38:07;;;;;;;9.23;3.40;;;9.40;99.90;;;;;;4415824;28;656273;-71
2023/01/13 11:40:54;;;;;;;4.87;2.53;;;9.40;99.90;;;;;;4418080;28;657368;-70
2023/01/13 11:43:44;;;;;;;7.67;3.40;;;9.40;99.90;;;;;;4421959;28;655264;-70
2023/01/13 11:46:31;;;;;;;7.80;3.00;;;9.30;99.90;;;;;;4428299;28;655771;-70
2023/01/13 11:49:23;;;;;;;6.50;3.33;;;9.30;99.90;;;;;;4445699;28;655872;-70
2023/01/13 11:52:16;;;;;;;7.33;3.27;;;9.30;99.90;;;;;;4402798;28;656056;-70
2023/01/13 11:55:17;;;;;;;9.33;4.23;;;9.30;99.90;;;;;;4428939;28;655938;-70
2023/01/13 11:58:14;;;;;;;8.07;3.60;;;9.20;99.90;;;;;;4427277;28;655293;-69
2023/01/13 12:01:09;;;;;;;11.17;4.50;;;9.20;99.90;;;;;;4413540;28;655887;-69
2023/01/13 12:04:01;;;;;;;8.07;3.77;;;9.30;99.90;;;;;;4385565;28;657480;-69
2023/01/13 12:06:49;;;;;;;6.77;3.90;;;9.30;99.90;;;;;;4408565;28;655988;-70
2023/01/13 12:09:44;;;;;;;9.90;3.33;;;9.30;99.90;;;;;;4413615;28;656252;-69
2023/01/13 12:12:38;;;;;;;9.40;3.90;;;9.20;99.90;;;;;;4417256;28;655860;-70
2023/01/13 12:15:35;;;;;;;8.20;3.73;;;9.20;99.90;;;;;;4407262;28;655895;-69
2023/01/13 12:19:08;;;;;;;7.67;3.97;;;9.10;99.90;;;;;;4388636;28;655901;-71
2023/01/13 12:22:03;;;;;;;8.67;3.87;;;9.20;99.90;;;;;;4365030;28;655963;-70
2023/01/13 12:24:54;;;;;;;8.77;4.10;;;9.30;99.90;;;;;;4391052;28;656219;-70
2023/01/13 12:27:43;;;;;;;7.80;4.20;;;9.30;99.90;;;;;;4414095;28;655366;-70
2023/01/13 12:30:35;;;;;;;9.60;3.28;;;9.30;99.90;;;;;;4416771;28;655912;-70
2023/01/13 12:33:26;;;;;;;6.63;3.50;;;9.30;99.90;;;;;;4409297;28;657012;-71
2023/01/13 12:36:16;;;;;;;8.97;4.53;;;9.30;99.90;;;;;;4409428;28;656210;-69
2023/01/13 12:39:05;;;;;;;12.70;4.30;;;9.30;99.90;;;;;;4416093;28;656309;-69
2023/01/13 12:45:28;;;;;;;10.33;4.67;;;9.20;99.90;;;;;;4400247;28;655351;-70
2023/01/13 12:48:44;;;;;;;9.05;3.83;;;9.30;99.90;;;;;;4349321;28;656612;-70
2023/01/13 12:51:32;;;;;;;8.63;3.87;;;9.20;99.90;;;;;;4412809;28;655727;-70
2023/01/13 12:55:03;;;;;;;9.03;3.37;;;9.20;99.90;;;;;;4426829;28;655849;-71
2023/01/13 12:58:15;;;;;;;4.67;2.63;;;9.20;99.90;;;;;;4390149;28;656045;-69
2023/01/13 13:01:10;;;;;;;8.30;3.27;;;9.10;99.90;;;;;;4390407;28;656384;-69
2023/01/13 13:04:07;;;;;;;6.73;3.43;;;9.10;99.90;;;;;;4389425;28;655901;-70
2023/01/13 13:07:03;;;;;;;6.60;3.50;;;9.10;99.90;;;;;;4429950;28;655379;-69
2023/01/13 13:09:52;;;;;;;6.87;3.50;;;9.00;99.90;;;;;;4427215;28;655536;-69
2023/01/13 13:16:46;;;;;;;10.23;4.27;;;9.00;99.90;;;;;;4422568;28;655550;-69
2023/01/13 13:19:48;;;;;;;10.00;4.10;;;9.00;99.90;;;;;;4407748;28;656828;-69
2023/01/13 13:22:42;;;;;;;10.40;4.17;;;8.80;99.90;;;;;;4390104;28;656723;-70
2023/01/13 13:25:29;;;;;;;11.32;4.88;;;8.80;99.90;;;;;;4412033;28;657059;-70
2023/01/13 13:28:18;;;;;;;11.60;4.27;;;8.90;99.90;;;;;;4411264;28;656618;-70
2023/01/13 13:31:17;;;;;;;12.53;4.67;;;8.80;99.90;;;;;;4414276;28;656576;-70
2023/01/13 13:34:21;;;;;;;10.00;4.97;;;8.80;99.90;;;;;;4436706;28;657339;-69
2023/01/13 13:37:19;;;;;;;15.57;5.07;;;8.90;99.90;;;;;;4411721;28;656701;-70
2023/01/13 13:49:37;;;;;;;9.63;4.70;;;8.70;99.90;;;;;;4418788;28;655431;-70
2023/01/13 13:52:29;;;;;;;9.77;4.78;;;8.70;99.90;;;;;;4404945;28;655737;-70
2023/01/13 13:55:17;;;;;;;8.03;4.77;;;8.80;99.90;;;;;;4412493;28;655362;-70
2023/01/13 13:58:04;;;;;;;8.77;4.47;;;8.80;99.90;;;;;;4442524;28;655822;-70
2023/01/13 14:00:52;;;;;;;9.03;4.37;;;8.80;99.90;;;;;;4421215;28;655686;-70
2023/01/13 14:03:40;;;;;;;10.37;4.33;;;8.80;99.90;;;;;;4431068;28;655950;-70
2023/01/13 14:06:28;;;;;;;6.13;3.70;;;8.80;99.90;;;;;;4406893;28;657617;-70
2023/01/13 14:09:16;;;;;;;9.03;3.63;;;8.80;99.90;;;;;;4423100;28;655151;-70
2023/01/13 14:12:05;;;;;;;7.97;3.70;;;8.80;99.90;;;;;;4434266;28;656450;-70
2023/01/13 14:14:54;;;;;;;8.93;3.80;;;8.80;99.90;;;;;;4429856;28;656585;-70
2023/01/13 14:17:42;;;;;;;8.40;4.07;;;8.70;99.90;;;;;;4414355;28;655707;-69
2023/01/13 14:20:30;;;;;;;9.83;3.63;;;8.80;99.90;;;;;;4445822;28;655193;-69
2023/01/13 14:23:17;;;;;;;5.70;2.93;;;8.70;99.90;;;;;;4407942;28;655902;-70
2023/01/13 14:26:08;;;;;;;5.73;3.17;;;8.60;99.90;;;;;;4426792;28;655326;-70
2023/01/13 14:28:55;;;;;;;6.83;3.13;;;8.60;99.90;;;;;;4413317;28;655522;-71
2023/01/13 14:31:42;;;;;;;6.67;3.30;;;8.70;99.90;;;;;;4431239;28;656232;-72
2023/01/13 14:34:31;;;;;;;6.93;3.60;;;8.60;99.90;;;;;;4426974;28;655349;-72
2023/01/13 14:37:25;;;;;;;7.30;3.70;;;8.60;99.90;;;;;;4442691;28;656414;-72
2023/01/13 14:40:43;;;;;;;7.33;3.90;;;8.60;99.90;;;;;;4385122;28;656758;-72
2023/01/13 14:43:30;;;;;;;7.72;3.53;;;8.60;99.90;;;;;;4389002;28;655834;-71
2023/01/13 14:46:19;;;;;;;8.97;4.30;;;8.60;99.90;;;;;;4430011;28;656868;-71
2023/01/13 14:49:23;;;;;;;10.73;4.50;;;8.50;99.90;;;;;;4415789;28;656503;-72
2023/01/13 14:52:13;;;;;;;9.47;4.53;;;8.50;99.90;;;;;;4387927;28;657211;-71
2023/01/13 14:55:32;;;;;;;7.40;3.83;;;8.50;99.90;;;;;;4413763;28;655966;-72
2023/01/13 14:58:27;;;;;;;10.40;4.20;;;8.40;99.90;;;;;;4356566;28;655779;-72
2023/01/13 15:01:28;;;;;;;9.60;4.70;;;8.20;99.90;;;;;;4406540;28;656593;-72
2023/01/13 15:04:16;;;;;;;7.97;4.43;;;8.20;99.90;;;;;;4393309;28;655548;-71
2023/01/13 15:07:03;;;;;;;10.90;4.97;;;8.10;99.90;;;;;;4434185;28;656694;-73
2023/01/13 15:09:53;;;;;;;11.50;5.20;;;8.20;99.90;;;;;;4410109;28;656421;-71
2023/01/13 15:12:42;;;;;;;13.38;5.13;;;8.20;99.90;;;;;;4414783;28;656547;-71
2023/01/13 15:15:31;;;;;;;13.30;5.23;;;8.20;99.90;;;;;;4439588;28;657146;-71
2023/01/13 15:18:18;;;;;;;12.80;4.73;;;8.20;99.90;;;;;;4408821;28;657508;-72
2023/01/13 15:21:06;;;;;;;11.33;4.63;;;8.10;99.90;;;;;;4428860;28;656762;-72
2023/01/13 15:23:54;;;;;;;14.50;5.70;;;8.10;99.90;;;;;;4437034;28;658163;-72
2023/01/13 15:26:41;;;;;;;11.73;5.50;;;8.00;99.90;;;;;;4420393;28;656660;-72
2023/01/13 15:29:29;;;;;;;12.30;5.77;;;8.00;99.90;;;;;;4432733;28;656736;-72
2023/01/13 15:32:18;;;;;;;13.87;5.40;;;8.00;99.90;;;;;;4410362;28;657463;-72
2023/01/13 15:35:06;;;;;;;10.83;5.00;;;7.90;99.90;;;;;;4430295;28;656787;-71
2023/01/13 15:37:54;;;;;;;10.30;5.17;;;7.90;99.90;;;;;;4437451;28;657707;-72